Main page
METAR-TAF:

METAR-TAF

Airports :

Jinotega, Nicaragua

latitude: 13-05N, longitude: 085-59W, elevation: 985 m

Current weather observation

The report was made 2 hours and 6 minutes ago, at 23:00 UTC
Calm wind
Temperature 25°C
Humidity 69%
Pressure 1011 hPa
Visibility 10 km or more
Broken clouds at a height of 1000 ft

METAR: MNJG 232300Z 00000KT 9999 BKN010 25/19 Q1011

Time: 19:06 (01:06 UTC)


TAF: missing

Weather observations and forecasts of more than 4000 airports (METAR and TAF reports).

The available stations are represented by yellow and red dots on the map.

Hover mouse over dot to see the name of the station.

Then click to see weather observations and forecasts.

To change the map : click on the green buttons with a black cross to zoom in, on the green button with a dash to zoom out, or on the green arrows for adjacent maps.


METAR-TAF: